createdAt,value
2023-01-13T00:01:27.510Z,100245.09
2023-01-13T00:03:55.658Z,100240.59
2023-01-13T00:06:26.585Z,100233.00
2023-01-13T00:08:54.866Z,100230.13
2023-01-13T00:11:24.378Z,100227.69
2023-01-13T00:13:52.150Z,100222.09
2023-01-13T00:16:21.092Z,100229.63
2023-01-13T00:18:52.135Z,100214.34
2023-01-13T00:21:21.861Z,100227.28
2023-01-13T00:23:50.358Z,100222.00
2023-01-13T00:26:21.632Z,100214.75
2023-01-13T00:28:49.782Z,100231.91
2023-01-13T00:31:19.639Z,100240.19
2023-01-13T00:33:48.921Z,100232.94
2023-01-13T00:36:21.476Z,100246.19
2023-01-13T00:38:49.656Z,100250.09
2023-01-13T00:41:19.372Z,100248.13
2023-01-13T00:43:47.107Z,100246.97
2023-01-13T00:46:17.569Z,100234.59
2023-01-13T00:48:45.471Z,100229.16
2023-01-13T00:51:16.954Z,100227.97
2023-01-13T00:53:48.963Z,100219.06
2023-01-13T00:56:24.403Z,100215.16
2023-01-13T00:58:58.780Z,100205.81
2023-01-13T01:01:27.020Z,100208.84
2023-01-13T01:03:56.011Z,100192.88
2023-01-13T01:06:26.948Z,100198.19
2023-01-13T01:08:56.712Z,100190.34
2023-01-13T01:11:26.411Z,100186.13
2023-01-13T01:13:56.539Z,100193.81
2023-01-13T01:16:27.425Z,100184.34
2023-01-13T01:18:56.427Z,100187.06
2023-01-13T01:21:25.691Z,100193.69
2023-01-13T01:23:54.287Z,100191.28
2023-01-13T01:26:25.218Z,100184.63
2023-01-13T01:28:53.663Z,100188.13
2023-01-13T01:31:23.404Z,100186.59
2023-01-13T01:33:51.556Z,100181.94
2023-01-13T01:36:21.628Z,100189.31
2023-01-13T01:38:50.456Z,100198.97
2023-01-13T01:41:20.474Z,100196.59
2023-01-13T01:44:02.654Z,100201.22
2023-01-13T01:46:32.976Z,100208.94
2023-01-13T01:49:08.087Z,100208.94
2023-01-13T01:51:39.778Z,100218.88
2023-01-13T01:54:11.585Z,100224.63
2023-01-13T01:56:42.251Z,100215.72
2023-01-13T01:59:12.185Z,100221.91
2023-01-13T02:01:42.451Z,100217.69
2023-01-13T02:04:14.773Z,100208.50
2023-01-13T02:06:43.984Z,100191.91
2023-01-13T02:09:12.132Z,100202.13
2023-01-13T02:11:57.234Z,100191.72
2023-01-13T02:14:29.378Z,100198.47
2023-01-13T02:17:11.967Z,100202.84
2023-01-13T02:20:22.393Z,100202.22
2023-01-13T02:23:42.307Z,100204.16
2023-01-13T02:26:30.883Z,100210.50
2023-01-13T02:29:30.341Z,100195.13
2023-01-13T02:32:06.257Z,100183.94
2023-01-13T02:34:40.332Z,100182.75
2023-01-13T02:37:14.968Z,100192.84
2023-01-13T02:39:50.945Z,100177.63
2023-01-13T02:42:40.722Z,100198.13
2023-01-13T02:45:13.835Z,100176.59
2023-01-13T02:47:47.444Z,100148.28
2023-01-13T02:50:19.280Z,100163.69
2023-01-13T02:52:52.713Z,100159.75
2023-01-13T02:55:25.647Z,100176.34
2023-01-13T02:57:55.697Z,100166.56
2023-01-13T03:00:24.508Z,100162.66
2023-01-13T03:02:54.089Z,100170.47
2023-01-13T03:05:21.963Z,100166.13
2023-01-13T03:08:15.547Z,100170.81
2023-01-13T03:10:57.633Z,100171.31
2023-01-13T03:13:51.290Z,100156.44
2023-01-13T03:16:38.372Z,100140.91
2023-01-13T03:19:17.009Z,100147.84
2023-01-13T03:21:52.866Z,100160.97
2023-01-13T03:24:26.628Z,100162.31
2023-01-13T03:27:00.856Z,100149.50
2023-01-13T03:29:35.054Z,100151.03
2023-01-13T03:32:09.533Z,100151.59
2023-01-13T03:34:45.886Z,100140.44
2023-01-13T03:37:16.117Z,100146.66
2023-01-13T03:39:48.704Z,100146.47
2023-01-13T03:42:21.523Z,100160.66
2023-01-13T03:44:54.942Z,100171.09
2023-01-13T03:47:29.730Z,100160.38
2023-01-13T03:50:03.525Z,100158.28
2023-01-13T03:52:35.116Z,100164.91
2023-01-13T03:55:10.259Z,100142.91
2023-01-13T03:57:44.048Z,100153.13
2023-01-13T04:00:15.493Z,100150.56
2023-01-13T04:02:51.450Z,100152.53
2023-01-13T04:05:20.875Z,100149.06
2023-01-13T04:07:53.958Z,100158.09
2023-01-13T04:10:28.616Z,100149.19
2023-01-13T04:13:01.625Z,100137.72
2023-01-13T04:15:32.526Z,100143.16
2023-01-13T04:18:10.480Z,100150.72
2023-01-13T04:20:40.933Z,100147.41
2023-01-13T04:23:09.194Z,100146.78
2023-01-13T04:25:37.244Z,100149.19
2023-01-13T04:28:05.372Z,100160.97
2023-01-13T04:30:33.129Z,100159.59
2023-01-13T04:33:00.955Z,100166.97
2023-01-13T04:35:28.884Z,100169.81
2023-01-13T04:37:58.390Z,100169.38
2023-01-13T04:40:26.158Z,100164.72
2023-01-13T04:42:54.000Z,100160.63
2023-01-13T04:45:21.822Z,100147.81
2023-01-13T04:47:49.559Z,100155.94
2023-01-13T04:50:19.860Z,100168.44
2023-01-13T04:52:48.086Z,100154.88
2023-01-13T04:55:17.862Z,100147.22
2023-01-13T04:57:45.630Z,100153.81
2023-01-13T05:00:15.549Z,100149.94
2023-01-13T05:02:43.310Z,100149.31
2023-01-13T05:05:11.385Z,100153.22
2023-01-13T05:07:39.151Z,100156.13
2023-01-13T05:10:07.582Z,100159.16
2023-01-13T05:12:54.256Z,100152.94
2023-01-13T05:15:39.791Z,100146.75
2023-01-13T05:18:07.937Z,100154.03
2023-01-13T05:20:35.761Z,100143.75
2023-01-13T05:23:21.539Z,100169.41
2023-01-13T05:25:50.231Z,100135.00
2023-01-13T05:28:19.358Z,100129.44
2023-01-13T05:30:49.336Z,100127.94
2023-01-13T05:33:20.229Z,100133.81
2023-01-13T05:35:48.599Z,100114.81
2023-01-13T05:38:18.070Z,100132.91
2023-01-13T05:41:03.813Z,100139.53
2023-01-13T05:43:33.025Z,100138.63
2023-01-13T05:46:03.035Z,100142.56
2023-01-13T05:48:34.467Z,100156.88
2023-01-13T05:51:03.223Z,100157.31
2023-01-13T05:53:31.732Z,100151.56
2023-01-13T05:56:00.295Z,100157.00
2023-01-13T05:58:29.079Z,100163.97
2023-01-13T06:01:02.244Z,100138.00
2023-01-13T06:03:30.239Z,100150.50
2023-01-13T06:06:01.683Z,100151.84
2023-01-13T06:08:30.392Z,100147.22
2023-01-13T06:10:58.422Z,100148.41
2023-01-13T06:13:26.429Z,100141.47
2023-01-13T06:15:57.405Z,100152.75
2023-01-13T06:18:27.062Z,100148.56
2023-01-13T06:20:54.990Z,100148.56
2023-01-13T06:23:22.783Z,100148.88
2023-01-13T06:26:00.493Z,100179.00
2023-01-13T06:28:28.586Z,100168.00
2023-01-13T06:30:59.742Z,100155.50
2023-01-13T06:33:33.671Z,100155.66
2023-01-13T06:36:06.924Z,100157.50
2023-01-13T06:38:38.290Z,100165.16
2023-01-13T06:41:08.575Z,100157.50
2023-01-13T06:43:35.425Z,100151.16
2023-01-13T06:46:03.653Z,100178.31
2023-01-13T06:48:35.382Z,100180.88
2023-01-13T06:51:04.186Z,100171.84
2023-01-13T06:53:32.451Z,100175.59
2023-01-13T06:56:00.242Z,100189.94
2023-01-13T06:58:28.096Z,100187.22
2023-01-13T07:00:55.934Z,100180.59
2023-01-13T07:03:25.674Z,100175.75
2023-01-13T07:05:56.369Z,100175.91
2023-01-13T07:08:24.840Z,100184.38
2023-01-13T07:10:52.922Z,100191.59
2023-01-13T07:13:40.181Z,100190.56
2023-01-13T07:16:10.017Z,100198.41
2023-01-13T07:18:38.553Z,100183.03
2023-01-13T07:21:09.837Z,100192.66
2023-01-13T07:23:38.715Z,100194.19
2023-01-13T07:26:07.666Z,100195.69
2023-01-13T07:28:35.639Z,100191.75
2023-01-13T07:31:03.788Z,100201.00
2023-01-13T07:33:33.264Z,100210.94
2023-01-13T07:36:03.309Z,100198.84
2023-01-13T07:38:33.498Z,100205.34
2023-01-13T07:41:22.859Z,100215.34
2023-01-13T07:43:50.443Z,100203.56
2023-01-13T07:46:19.105Z,100213.97
2023-01-13T07:48:49.056Z,100207.31
2023-01-13T07:51:17.360Z,100210.34
2023-01-13T07:53:46.621Z,100204.47
2023-01-13T07:56:14.534Z,100219.13
2023-01-13T07:58:42.327Z,100222.88
2023-01-13T08:01:10.771Z,100220.00
2023-01-13T08:03:39.252Z,100221.38
2023-01-13T08:06:07.715Z,100219.44
2023-01-13T08:08:35.509Z,100209.00
2023-01-13T08:11:06.185Z,100227.59
2023-01-13T08:13:34.301Z,100217.78
2023-01-13T08:16:04.801Z,100216.56
2023-01-13T08:18:33.996Z,100213.09
2023-01-13T08:21:04.035Z,100215.63
2023-01-13T08:23:32.103Z,100216.41
2023-01-13T08:26:06.530Z,100207.03
2023-01-13T08:28:34.397Z,100228.34
2023-01-13T08:31:03.359Z,100240.72
2023-01-13T08:33:31.558Z,100243.44
2023-01-13T08:35:59.732Z,100244.94
2023-01-13T08:38:27.536Z,100236.31
2023-01-13T08:40:56.392Z,100245.38
2023-01-13T08:43:29.291Z,100246.00
2023-01-13T08:45:59.068Z,100254.28
2023-01-13T08:48:29.717Z,100266.81
2023-01-13T08:51:05.088Z,100257.28
2023-01-13T08:53:32.934Z,100259.13
2023-01-13T08:56:00.871Z,100266.34
2023-01-13T08:58:30.048Z,100272.69
2023-01-13T09:00:57.977Z,100284.91
2023-01-13T09:03:25.844Z,100293.59
2023-01-13T09:05:53.669Z,100289.22
2023-01-13T09:08:21.776Z,100298.25
2023-01-13T09:10:50.054Z,100287.09
2023-01-13T09:13:17.163Z,100294.34
2023-01-13T09:15:47.750Z,100304.44
2023-01-13T09:18:15.716Z,100281.09
2023-01-13T09:20:44.551Z,100306.28
2023-01-13T09:23:12.365Z,100314.75
2023-01-13T09:25:40.732Z,100298.88
2023-01-13T09:28:09.075Z,100307.16
2023-01-13T09:30:38.410Z,100317.09
2023-01-13T09:33:25.009Z,100302.16
2023-01-13T09:35:53.118Z,100309.22
2023-01-13T09:38:20.886Z,100314.34
2023-01-13T09:40:49.931Z,100315.09
2023-01-13T09:43:39.985Z,100320.09
2023-01-13T09:46:36.918Z,100316.91
2023-01-13T09:49:08.042Z,100312.84
2023-01-13T09:51:43.237Z,100340.50
2023-01-13T09:54:17.187Z,100340.56
2023-01-13T09:56:45.034Z,100330.28
2023-01-13T09:59:13.481Z,100343.31
2023-01-13T10:01:52.646Z,100336.22
2023-01-13T10:04:21.926Z,100336.81
2023-01-13T10:06:57.915Z,100336.81
2023-01-13T10:09:34.939Z,100329.28
2023-01-13T10:12:21.935Z,100332.63
2023-01-13T10:14:55.421Z,100336.06
2023-01-13T10:17:31.380Z,100350.34
2023-01-13T10:20:13.241Z,100350.50
2023-01-13T10:23:00.636Z,100357.31
2023-01-13T10:25:38.738Z,100362.00
2023-01-13T10:28:11.062Z,100372.28
2023-01-13T10:30:41.189Z,100375.03
2023-01-13T10:33:13.051Z,100381.09
2023-01-13T10:35:54.032Z,100380.81
2023-01-13T10:38:25.122Z,100384.00
2023-01-13T10:40:53.779Z,100366.34
2023-01-13T10:43:26.437Z,100393.97
2023-01-13T10:46:01.368Z,100398.34
2023-01-13T10:48:41.853Z,100390.94
2023-01-13T10:51:21.551Z,100375.41
2023-01-13T10:53:58.958Z,100378.56
2023-01-13T10:56:29.680Z,100395.19
2023-01-13T10:59:25.603Z,100383.72
2023-01-13T11:02:01.116Z,100405.78
2023-01-13T11:04:33.794Z,100407.16
2023-01-13T11:07:04.684Z,100407.47
2023-01-13T11:09:33.674Z,100408.06
2023-01-13T11:12:03.013Z,100413.06
2023-01-13T11:14:40.520Z,100416.09
2023-01-13T11:17:18.757Z,100418.38
2023-01-13T11:19:53.253Z,100412.75
2023-01-13T11:22:26.360Z,100411.09
2023-01-13T11:24:58.349Z,100418.50
2023-01-13T11:27:39.301Z,100422.72
2023-01-13T11:30:18.491Z,100424.09
2023-01-13T11:33:01.828Z,100417.94
2023-01-13T11:35:32.525Z,100426.88
2023-01-13T11:38:10.586Z,100433.69
2023-01-13T11:40:42.011Z,100419.03
2023-01-13T11:43:19.117Z,100425.53
2023-01-13T11:45:50.525Z,100435.06
2023-01-13T11:48:23.311Z,100429.78
2023-01-13T11:50:58.117Z,100442.31
2023-01-13T11:53:47.320Z,100441.41
2023-01-13T11:56:30.102Z,100461.53
2023-01-13T11:59:32.118Z,100454.09
2023-01-13T12:02:15.265Z,100458.63
2023-01-13T12:04:54.316Z,100462.88
2023-01-13T12:07:33.153Z,100444.56
2023-01-13T12:10:14.060Z,100474.81
2023-01-13T12:12:51.384Z,100462.56
2023-01-13T12:15:46.454Z,100468.31
2023-01-13T12:18:39.141Z,100473.47
2023-01-13T12:21:22.680Z,100474.97
2023-01-13T12:24:02.088Z,100485.84
2023-01-13T12:26:36.965Z,100479.34
2023-01-13T12:29:08.437Z,100489.50
2023-01-13T12:31:39.554Z,100485.09
2023-01-13T12:34:17.240Z,100486.16
2023-01-13T12:36:56.766Z,100498.59
2023-01-13T12:39:36.979Z,100494.50
2023-01-13T12:42:29.957Z,100487.81
2023-01-13T12:45:23.200Z,100495.56
2023-01-13T12:47:51.521Z,100509.47
2023-01-13T12:50:41.426Z,100498.41
2023-01-13T12:53:42.614Z,100508.56
2023-01-13T12:56:42.093Z,100500.69
2023-01-13T12:59:50.442Z,100514.75
2023-01-13T13:02:28.419Z,100518.84
2023-01-13T13:04:58.442Z,100535.00
2023-01-13T13:07:37.492Z,100549.84
2023-01-13T13:10:17.905Z,100538.50
2023-01-13T13:13:15.653Z,100542.13
2023-01-13T13:15:45.855Z,100542.59
2023-01-13T13:18:28.482Z,100539.41
2023-01-13T13:21:04.262Z,100540.94
2023-01-13T13:23:44.304Z,100553.50
2023-01-13T13:26:21.595Z,100555.91
2023-01-13T13:29:02.571Z,100565.59
2023-01-13T13:31:49.151Z,100576.78
2023-01-13T13:34:26.637Z,100578.31
2023-01-13T13:37:14.006Z,100567.69
2023-01-13T13:40:01.465Z,100587.53
2023-01-13T13:42:55.286Z,100579.81
2023-01-13T13:45:43.265Z,100580.44
2023-01-13T13:48:26.705Z,100573.91
2023-01-13T13:50:58.064Z,100588.28
2023-01-13T13:53:29.347Z,100594.81
2023-01-13T13:55:59.756Z,100593.75
2023-01-13T13:58:29.544Z,100607.81
2023-01-13T14:00:58.280Z,100604.78
2023-01-13T14:03:31.844Z,100614.94
2023-01-13T14:06:01.993Z,100624.63
2023-01-13T14:08:32.132Z,100628.56
2023-01-13T14:11:00.108Z,100640.19
2023-01-13T14:13:30.269Z,100641.72
2023-01-13T14:16:00.592Z,100642.91
2023-01-13T14:18:32.279Z,100660.50
2023-01-13T14:21:01.838Z,100661.25
2023-01-13T14:23:33.484Z,100659.75
2023-01-13T14:26:04.922Z,100660.31
2023-01-13T14:28:36.645Z,100669.41
2023-01-13T14:31:06.110Z,100662.91
2023-01-13T14:33:38.919Z,100685.13
2023-01-13T14:36:12.473Z,100663.34
2023-01-13T14:38:40.530Z,100683.31
2023-01-13T14:41:22.291Z,100681.34
2023-01-13T14:43:51.640Z,100692.56
2023-01-13T14:46:22.107Z,100683.31
2023-01-13T14:48:54.436Z,100696.63
2023-01-13T14:51:25.265Z,100704.47
2023-01-13T14:53:54.522Z,100705.25
2023-01-13T14:56:40.428Z,100698.16
2023-01-13T14:59:34.376Z,100703.59
2023-01-13T15:02:03.779Z,100705.53
2023-01-13T15:04:38.158Z,100730.97
2023-01-13T15:07:08.034Z,100743.97
2023-01-13T15:09:42.739Z,100757.56
2023-01-13T15:12:18.341Z,100756.81
2023-01-13T15:14:50.814Z,100753.34
2023-01-13T15:17:19.267Z,100765.75
2023-01-13T15:19:48.417Z,100766.22
2023-01-13T15:22:16.262Z,100771.34
2023-01-13T15:24:44.301Z,100773.31
2023-01-13T15:27:19.314Z,100784.66
2023-01-13T15:29:47.094Z,100787.81
2023-01-13T15:32:20.065Z,100789.03
2023-01-13T15:34:50.710Z,100797.63
2023-01-13T15:37:19.492Z,100807.91
2023-01-13T15:39:47.431Z,100804.09
2023-01-13T15:42:34.849Z,100802.72
2023-01-13T15:45:20.416Z,100822.34
2023-01-13T15:47:48.257Z,100832.19
2023-01-13T15:50:19.324Z,100825.22
2023-01-13T15:52:46.982Z,100829.13
2023-01-13T15:55:14.833Z,100812.50
2023-01-13T15:57:48.861Z,100837.00
2023-01-13T16:00:20.159Z,100836.38
2023-01-13T16:02:48.036Z,100838.91
2023-01-13T16:05:17.449Z,100847.06
2023-01-13T16:07:45.202Z,100864.16
2023-01-13T16:10:19.617Z,100846.31
2023-01-13T16:12:47.428Z,100868.53
2023-01-13T16:15:15.719Z,100872.03
2023-01-13T16:17:44.511Z,100866.13
2023-01-13T16:20:18.904Z,100872.78
2023-01-13T16:22:46.697Z,100882.44
2023-01-13T16:25:17.873Z,100884.72
2023-01-13T16:27:45.941Z,100905.28
2023-01-13T16:30:23.494Z,100898.34
2023-01-13T16:32:51.427Z,100889.44
2023-01-13T16:35:20.646Z,100892.56
2023-01-13T16:37:48.578Z,100908.25
2023-01-13T16:40:25.141Z,100905.69
2023-01-13T16:42:53.721Z,100887.50
2023-01-13T16:45:21.489Z,100895.38
2023-01-13T16:47:49.699Z,100904.72
2023-01-13T16:50:29.981Z,100924.09
2023-01-13T16:52:57.780Z,100932.69
2023-01-13T16:55:26.909Z,100928.88
2023-01-13T16:57:55.372Z,100945.75
2023-01-13T17:00:24.007Z,100934.44
2023-01-13T17:02:52.022Z,100952.66
2023-01-13T17:05:21.628Z,100937.31
2023-01-13T17:07:50.570Z,100949.50
2023-01-13T17:10:20.158Z,100945.84
2023-01-13T17:12:47.957Z,100949.63
2023-01-13T17:15:18.017Z,100957.81
2023-01-13T17:17:51.827Z,100965.41
2023-01-13T17:20:21.297Z,100970.28
2023-01-13T17:22:54.868Z,100969.41
2023-01-13T17:25:25.780Z,100969.63
2023-01-13T17:27:53.642Z,100987.97
2023-01-13T17:30:21.538Z,100980.56
2023-01-13T17:32:49.297Z,100970.91
2023-01-13T17:35:19.396Z,100984.63
2023-01-13T17:37:48.568Z,100979.34
2023-01-13T17:40:17.073Z,100984.91
2023-01-13T17:42:44.853Z,100990.88
2023-01-13T17:45:12.957Z,100991.50
2023-01-13T17:47:40.745Z,101000.50
2023-01-13T17:50:09.646Z,101000.25
2023-01-13T17:52:37.435Z,101006.97
2023-01-13T17:55:07.374Z,101004.44
2023-01-13T17:57:35.985Z,100998.66
2023-01-13T18:00:06.299Z,101004.88
2023-01-13T18:02:40.044Z,101014.22
2023-01-13T18:05:08.349Z,101017.44
2023-01-13T18:07:36.108Z,101014.06
2023-01-13T18:10:03.916Z,101018.38
2023-01-13T18:12:34.777Z,101030.50
2023-01-13T18:15:02.673Z,101021.69
2023-01-13T18:17:30.476Z,101021.38
2023-01-13T18:20:15.727Z,101022.56
2023-01-13T18:23:06.500Z,101031.44
2023-01-13T18:25:51.891Z,101026.47
2023-01-13T18:28:21.030Z,101025.69
2023-01-13T18:30:49.204Z,101021.03
2023-01-13T18:33:16.992Z,101028.31
2023-01-13T18:35:44.782Z,101044.59
2023-01-13T18:38:14.043Z,101046.56
2023-01-13T18:40:44.307Z,101051.47
2023-01-13T18:43:11.140Z,101052.22
2023-01-13T18:45:40.315Z,101054.41
2023-01-13T18:48:08.164Z,101059.00
2023-01-13T18:50:35.994Z,101053.81
2023-01-13T18:53:04.479Z,101052.88
2023-01-13T18:55:32.527Z,101061.59
2023-01-13T18:58:00.580Z,101058.81
2023-01-13T19:00:29.191Z,101060.56
2023-01-13T19:05:35.219Z,101068.53
2023-01-13T19:08:03.236Z,101074.31
2023-01-13T19:10:32.544Z,101075.06
2023-01-13T19:13:01.162Z,101082.34
2023-01-13T19:15:29.058Z,101083.53
2023-01-13T19:17:56.934Z,101097.22
2023-01-13T19:20:26.264Z,101098.41
2023-01-13T19:22:54.917Z,101099.50
2023-01-13T19:25:22.911Z,101090.91
2023-01-13T19:27:50.706Z,101101.78
2023-01-13T19:30:18.805Z,101107.22
2023-01-13T19:32:46.627Z,101114.59
2023-01-13T19:35:17.559Z,101102.56
2023-01-13T19:37:46.760Z,101109.91
2023-01-13T19:40:15.018Z,101116.56
2023-01-13T19:43:01.180Z,101112.31
2023-01-13T19:45:30.690Z,101125.91
2023-01-13T19:48:01.675Z,101134.81
2023-01-13T19:50:29.628Z,101130.03
2023-01-13T19:52:58.973Z,101134.63
2023-01-13T19:55:26.800Z,101130.72
2023-01-13T19:57:54.628Z,101144.63
2023-01-13T20:00:23.768Z,101141.91
2023-01-13T20:02:53.122Z,101147.34
2023-01-13T20:05:25.885Z,101148.09
2023-01-13T20:07:54.402Z,101163.91
2023-01-13T20:10:24.977Z,101162.28
2023-01-13T20:12:52.857Z,101163.78
2023-01-13T20:15:20.609Z,101167.72
2023-01-13T20:17:48.587Z,101170.09
2023-01-13T20:20:18.475Z,101167.78
2023-01-13T20:22:46.344Z,101160.16
2023-01-13T20:25:16.817Z,101172.22
2023-01-13T20:27:47.097Z,101167.13
2023-01-13T20:30:15.807Z,101160.84
2023-01-13T20:32:44.486Z,101172.38
2023-01-13T20:35:12.626Z,101168.47
2023-01-13T20:37:41.548Z,101165.00
2023-01-13T20:40:13.966Z,101176.38
2023-01-13T20:42:44.695Z,101182.91
2023-01-13T20:45:17.717Z,101192.94
2023-01-13T20:47:46.602Z,101197.50
2023-01-13T20:50:15.478Z,101211.09
2023-01-13T20:52:43.505Z,101207.94
2023-01-13T20:55:11.566Z,101214.13
2023-01-13T20:57:40.879Z,101219.22
2023-01-13T21:00:10.400Z,101209.31
2023-01-13T21:02:40.515Z,101217.97
2023-01-13T21:05:09.229Z,101221.09
2023-01-13T21:07:37.054Z,101222.38
2023-01-13T21:10:17.593Z,101231.72
2023-01-13T21:13:03.064Z,101225.19
2023-01-13T21:15:30.871Z,101237.56
2023-01-13T21:18:17.437Z,101234.53
2023-01-13T21:20:45.216Z,101241.50
2023-01-13T21:23:13.014Z,101238.78
2023-01-13T21:25:41.168Z,101242.25
2023-01-13T21:28:11.507Z,101243.00
2023-01-13T21:30:40.395Z,101250.41
2023-01-13T21:33:13.766Z,101251.09
2023-01-13T21:35:41.579Z,101256.09
2023-01-13T21:38:11.497Z,101254.81
2023-01-13T21:40:39.337Z,101258.72
2023-01-13T21:43:24.658Z,101257.84
2023-01-13T21:46:09.907Z,101255.94
2023-01-13T21:48:39.127Z,101268.41
2023-01-13T21:51:07.003Z,101261.09
2023-01-13T21:53:34.844Z,101263.03
2023-01-13T21:56:02.707Z,101264.56
2023-01-13T21:58:30.481Z,101263.72
2023-01-13T22:01:02.146Z,101274.50
2023-01-13T22:03:30.068Z,101280.72
2023-01-13T22:05:59.298Z,101286.56
2023-01-13T22:08:27.105Z,101275.34
2023-01-13T22:10:58.546Z,101280.44
2023-01-13T22:13:44.352Z,101291.25
2023-01-13T22:16:12.439Z,101295.06
2023-01-13T22:18:40.274Z,101303.13
2023-01-13T22:21:09.587Z,101313.91
2023-01-13T22:23:37.555Z,101303.81
2023-01-13T22:26:06.899Z,101306.44
2023-01-13T22:28:40.539Z,101311.44
2023-01-13T22:31:09.379Z,101314.84
2023-01-13T22:33:37.445Z,101313.97
2023-01-13T22:36:05.746Z,101311.53
2023-01-13T22:38:35.041Z,101315.34
2023-01-13T22:41:04.636Z,101311.88
2023-01-13T22:43:32.532Z,101319.34
2023-01-13T22:46:02.362Z,101308.53
2023-01-13T22:48:31.181Z,101307.38
2023-01-13T22:51:05.529Z,101312.13
2023-01-13T22:53:35.087Z,101311.38
2023-01-13T22:56:03.615Z,101314.16
2023-01-13T22:58:31.742Z,101327.75
2023-01-13T23:01:08.737Z,101321.63
2023-01-13T23:03:36.858Z,101321.97
2023-01-13T23:06:05.222Z,101327.06
2023-01-13T23:08:35.914Z,101327.50
2023-01-13T23:11:05.959Z,101328.66
2023-01-13T23:13:33.770Z,101332.59
2023-01-13T23:16:03.841Z,101330.63
2023-01-13T23:18:31.642Z,101332.47
2023-01-13T23:21:03.640Z,101325.03
2023-01-13T23:23:31.995Z,101333.19
2023-01-13T23:26:01.602Z,101323.50
2023-01-13T23:28:29.512Z,101314.91
2023-01-13T23:30:57.340Z,101312.19
2023-01-13T23:33:25.245Z,101317.22
2023-01-13T23:35:56.741Z,101308.19
2023-01-13T23:38:24.572Z,101311.25
2023-01-13T23:40:52.531Z,101308.47
2023-01-13T23:43:21.779Z,101299.88
2023-01-13T23:45:49.782Z,101300.22
2023-01-13T23:48:18.657Z,101299.03
2023-01-13T23:50:57.833Z,101302.53
2023-01-13T23:53:30.999Z,101304.03
2023-01-13T23:55:59.411Z,101302.09
2023-01-13T23:58:28.966Z,101304.38
